createdAt,value
2019-03-06T00:00:36.061Z,0.00
2019-03-06T00:01:36.102Z,0.00
2019-03-06T00:02:36.091Z,0.00
2019-03-06T00:03:36.109Z,0.00
2019-03-06T00:04:36.117Z,0.49
2019-03-06T00:05:36.116Z,90.00
2019-03-06T00:06:36.115Z,90.00
2019-03-06T00:07:36.115Z,90.00
2019-03-06T00:08:36.152Z,90.00
2019-03-06T00:09:36.136Z,90.00
2019-03-06T00:10:36.152Z,90.00
2019-03-06T00:11:36.141Z,90.00
2019-03-06T00:12:36.169Z,90.00
2019-03-06T00:13:36.167Z,90.00
2019-03-06T00:14:36.178Z,90.00
2019-03-06T00:15:36.202Z,90.00
2019-03-06T00:16:36.215Z,90.00
2019-03-06T00:17:36.201Z,90.00
2019-03-06T00:18:36.222Z,90.00
2019-03-06T00:19:36.239Z,90.00
2019-03-06T00:20:36.225Z,90.00
2019-03-06T00:21:36.242Z,323.01
2019-03-06T00:22:36.243Z,315.00
2019-03-06T00:23:36.248Z,315.00
2019-03-06T00:24:36.234Z,315.00
2019-03-06T00:25:36.255Z,315.00
2019-03-06T00:26:36.281Z,320.82
2019-03-06T00:27:36.323Z,0.00
2019-03-06T00:28:36.300Z,0.00
2019-03-06T00:29:36.300Z,19.25
2019-03-06T00:30:36.267Z,127.33
2019-03-06T00:31:36.291Z,135.00
2019-03-06T00:32:36.317Z,125.64
2019-03-06T00:33:36.325Z,90.00
2019-03-06T00:34:36.324Z,90.00
2019-03-06T00:35:36.330Z,90.00
2019-03-06T00:36:36.318Z,90.00
2019-03-06T00:37:36.357Z,90.00
2019-03-06T00:38:36.368Z,132.71
2019-03-06T00:39:36.403Z,225.00
2019-03-06T00:40:36.372Z,225.00
2019-03-06T00:41:36.379Z,225.00
2019-03-06T00:42:36.386Z,225.00
2019-03-06T00:43:36.591Z,225.00
2019-03-06T00:44:36.620Z,225.00
2019-03-06T00:45:36.817Z,225.00
2019-03-06T00:46:36.634Z,225.00
2019-03-06T00:47:36.619Z,268.61
2019-03-06T00:48:36.635Z,0.00
2019-03-06T00:49:36.663Z,9.49
2019-03-06T00:50:36.659Z,180.00
2019-03-06T00:51:36.669Z,180.00
2019-03-06T00:52:36.854Z,180.00
2019-03-06T00:53:36.665Z,180.00
2019-03-06T00:54:36.680Z,153.50
2019-03-06T00:55:36.682Z,90.00
2019-03-06T00:56:36.703Z,90.00
2019-03-06T00:57:36.703Z,90.00
2019-03-06T00:58:36.711Z,90.00
2019-03-06T00:59:36.701Z,101.65
2019-03-06T01:00:36.714Z,135.00
2019-03-06T01:01:36.724Z,135.00
2019-03-06T01:02:36.732Z,135.00
2019-03-06T01:03:36.739Z,135.00
2019-03-06T01:04:36.753Z,134.77
2019-03-06T01:05:36.743Z,45.00
2019-03-06T01:06:36.764Z,45.00
2019-03-06T01:07:36.782Z,45.00
2019-03-06T01:08:36.807Z,45.00
2019-03-06T01:09:36.807Z,4.91
2019-03-06T01:10:36.793Z,262.63
2019-03-06T01:11:36.825Z,270.00
2019-03-06T01:12:36.820Z,270.00
2019-03-06T01:13:36.806Z,247.88
2019-03-06T01:14:36.808Z,143.73
2019-03-06T01:15:36.825Z,135.00
2019-03-06T01:16:36.839Z,135.00
2019-03-06T01:17:36.819Z,135.00
2019-03-06T01:18:36.874Z,135.00
2019-03-06T01:19:36.862Z,135.00
2019-03-06T01:20:36.859Z,135.00
2019-03-06T01:21:36.890Z,135.00
2019-03-06T01:22:36.893Z,135.00
2019-03-06T01:23:36.888Z,135.00
2019-03-06T01:24:36.908Z,135.00
2019-03-06T01:25:36.914Z,135.00
2019-03-06T01:26:36.929Z,135.00
2019-03-06T01:27:36.935Z,135.00
2019-03-06T01:28:36.925Z,135.00
2019-03-06T01:29:36.916Z,135.00
2019-03-06T01:30:36.929Z,135.00
2019-03-06T01:31:36.936Z,135.00
2019-03-06T01:32:37.151Z,135.00
2019-03-06T01:33:37.196Z,135.00
2019-03-06T01:34:37.196Z,109.62
2019-03-06T01:35:37.177Z,92.54
2019-03-06T01:36:37.180Z,135.00
2019-03-06T01:37:37.193Z,135.00
2019-03-06T01:38:37.196Z,135.00
2019-03-06T01:39:37.241Z,135.00
2019-03-06T01:40:37.222Z,135.00
2019-03-06T01:41:37.221Z,135.00
2019-03-06T01:42:37.226Z,135.00
2019-03-06T01:43:37.222Z,135.00
2019-03-06T01:44:37.263Z,135.00
2019-03-06T01:45:37.487Z,135.00
2019-03-06T01:46:37.279Z,135.00
2019-03-06T01:47:37.256Z,135.00
2019-03-06T01:48:37.265Z,135.00
2019-03-06T01:49:37.280Z,135.00
2019-03-06T01:50:37.306Z,135.00
2019-03-06T01:51:37.344Z,135.00
2019-03-06T01:52:37.304Z,135.00
2019-03-06T01:53:37.300Z,135.00
2019-03-06T01:54:37.351Z,135.00
2019-03-06T01:55:37.328Z,135.00
2019-03-06T01:56:37.347Z,135.00
2019-03-06T01:57:37.328Z,266.29
2019-03-06T01:58:37.573Z,294.73
2019-03-06T01:59:37.339Z,315.00
2019-03-06T02:00:37.350Z,271.30
2019-03-06T02:01:37.367Z,270.00
2019-03-06T02:02:37.409Z,270.00
2019-03-06T02:03:38.920Z,270.00
2019-03-06T02:04:37.404Z,270.00
2019-03-06T02:05:37.389Z,270.00
2019-03-06T02:06:37.398Z,164.25
2019-03-06T02:07:37.423Z,135.00
2019-03-06T02:08:37.434Z,135.00
2019-03-06T02:09:37.438Z,135.00
2019-03-06T02:10:37.415Z,135.00
2019-03-06T02:11:37.479Z,128.72
2019-03-06T02:12:37.429Z,225.00
2019-03-06T02:13:37.441Z,225.00
2019-03-06T02:14:37.471Z,130.51
2019-03-06T02:15:37.488Z,90.00
2019-03-06T02:16:37.470Z,90.00
2019-03-06T02:17:37.488Z,90.00
2019-03-06T02:18:37.521Z,90.00
2019-03-06T02:19:37.498Z,90.00
2019-03-06T02:20:37.509Z,90.00
2019-03-06T02:21:37.550Z,90.00
2019-03-06T02:22:37.553Z,90.00
2019-03-06T02:23:37.527Z,90.00
2019-03-06T02:24:37.338Z,90.00
2019-03-06T02:25:37.350Z,90.00
2019-03-06T02:26:37.405Z,25.16
2019-03-06T02:27:37.374Z,0.00
2019-03-06T02:28:37.348Z,0.00
2019-03-06T02:29:37.377Z,0.00
2019-03-06T02:30:37.353Z,0.00
2019-03-06T02:31:37.399Z,351.53
2019-03-06T02:32:37.399Z,180.00
2019-03-06T02:33:37.417Z,180.00
2019-03-06T02:34:37.408Z,180.00
2019-03-06T02:35:37.410Z,180.00
2019-03-06T02:36:37.424Z,180.00
2019-03-06T02:37:37.438Z,180.00
2019-03-06T02:38:37.500Z,180.00
2019-03-06T02:39:37.485Z,233.31
2019-03-06T02:40:37.425Z,300.56
2019-03-06T02:41:37.442Z,315.00
2019-03-06T02:42:37.452Z,315.00
2019-03-06T02:43:37.476Z,315.00
2019-03-06T02:44:39.951Z,315.00
2019-03-06T02:45:37.500Z,315.00
2019-03-06T02:46:37.509Z,315.00
2019-03-06T02:47:37.498Z,315.00
2019-03-06T02:48:37.512Z,89.98
2019-03-06T02:49:37.517Z,90.00
2019-03-06T02:50:37.530Z,90.00
2019-03-06T02:51:37.563Z,90.00
2019-03-06T02:52:37.550Z,90.00
2019-03-06T02:53:37.548Z,126.93
2019-03-06T02:54:37.343Z,135.00
2019-03-06T02:55:37.369Z,135.00
2019-03-06T02:56:37.378Z,135.00
2019-03-06T02:57:37.386Z,135.00
2019-03-06T02:58:37.371Z,135.00
2019-03-06T02:59:37.375Z,135.00
2019-03-06T03:00:37.408Z,135.00
2019-03-06T03:01:37.403Z,135.00
2019-03-06T03:02:37.417Z,135.00
2019-03-06T03:03:37.442Z,135.00
2019-03-06T03:04:37.422Z,135.00
2019-03-06T03:05:37.424Z,135.00
2019-03-06T03:06:37.460Z,135.00
2019-03-06T03:07:37.455Z,135.00
2019-03-06T03:08:37.447Z,135.00
2019-03-06T03:09:37.454Z,135.00
2019-03-06T03:10:37.492Z,135.00
2019-03-06T03:11:37.468Z,135.00
2019-03-06T03:12:37.469Z,135.00
2019-03-06T03:13:37.487Z,135.00
2019-03-06T03:14:37.544Z,165.37
2019-03-06T03:15:37.533Z,180.00
2019-03-06T03:16:37.532Z,180.00
2019-03-06T03:17:37.506Z,180.00
2019-03-06T03:18:37.547Z,180.00
2019-03-06T03:19:37.541Z,180.00
2019-03-06T03:20:37.603Z,180.00
2019-03-06T03:21:37.574Z,180.00
2019-03-06T03:22:37.559Z,180.00
2019-03-06T03:23:37.556Z,180.00
2019-03-06T03:24:37.401Z,180.00
2019-03-06T03:25:37.365Z,194.47
2019-03-06T03:26:37.473Z,225.00
2019-03-06T03:27:37.416Z,225.00
2019-03-06T03:28:37.407Z,225.00
2019-03-06T03:29:37.395Z,164.89
2019-03-06T03:30:37.436Z,135.00
2019-03-06T03:31:37.409Z,135.00
2019-03-06T03:32:37.444Z,135.00
2019-03-06T03:33:37.448Z,135.00
2019-03-06T03:34:37.445Z,135.00
2019-03-06T03:35:37.430Z,135.00
2019-03-06T03:36:37.461Z,96.38
2019-03-06T03:37:37.479Z,90.00
2019-03-06T03:38:37.476Z,90.00
2019-03-06T03:39:37.476Z,90.00
2019-03-06T03:40:37.519Z,90.00
2019-03-06T03:41:37.494Z,90.00
2019-03-06T03:42:37.477Z,109.26
2019-03-06T03:43:37.535Z,200.05
2019-03-06T03:44:37.514Z,315.75
2019-03-06T03:45:37.542Z,278.30
2019-03-06T03:46:37.553Z,315.00
2019-03-06T03:47:37.524Z,315.00
2019-03-06T03:48:37.565Z,315.00
2019-03-06T03:49:37.540Z,315.00
2019-03-06T03:50:37.784Z,336.60
2019-03-06T03:51:37.554Z,90.00
2019-03-06T03:52:37.567Z,118.36
2019-03-06T03:53:37.790Z,135.00
2019-03-06T03:54:37.787Z,135.00
2019-03-06T03:55:37.862Z,102.24
2019-03-06T03:56:37.820Z,90.00
2019-03-06T03:57:37.810Z,90.00
2019-03-06T03:58:37.831Z,90.00
2019-03-06T03:59:37.815Z,90.00
2019-03-06T04:00:37.827Z,90.00
2019-03-06T04:01:37.852Z,90.00
2019-03-06T04:02:37.851Z,90.00
2019-03-06T04:03:37.871Z,90.00
2019-03-06T04:04:37.874Z,126.91
2019-03-06T04:05:37.890Z,135.00
2019-03-06T04:06:37.920Z,135.00
2019-03-06T04:07:37.935Z,135.00
2019-03-06T04:08:37.904Z,135.00
2019-03-06T04:09:37.901Z,135.00
2019-03-06T04:10:37.902Z,124.02
2019-03-06T04:11:37.914Z,90.00
2019-03-06T04:12:37.927Z,90.00
2019-03-06T04:13:38.027Z,90.00
2019-03-06T04:14:38.030Z,90.00
2019-03-06T04:15:37.939Z,90.00
2019-03-06T04:16:37.967Z,90.00
2019-03-06T04:17:37.960Z,90.00
2019-03-06T04:18:38.008Z,90.00
2019-03-06T04:19:37.980Z,90.00
2019-03-06T04:20:37.981Z,90.00
2019-03-06T04:21:37.985Z,90.00
2019-03-06T04:22:38.010Z,90.00
2019-03-06T04:23:38.016Z,90.00
2019-03-06T04:24:38.002Z,90.00
2019-03-06T04:25:38.060Z,90.00
2019-03-06T04:26:38.041Z,90.00
2019-03-06T04:27:38.020Z,90.00
2019-03-06T04:28:38.057Z,90.00
2019-03-06T04:29:38.040Z,102.29
2019-03-06T04:30:38.067Z,196.75
2019-03-06T04:31:38.088Z,270.00
2019-03-06T04:32:38.069Z,270.00
2019-03-06T04:33:38.094Z,289.60
2019-03-06T04:34:38.095Z,288.67
2019-03-06T04:35:38.287Z,270.00
2019-03-06T04:36:38.087Z,270.00
2019-03-06T04:37:38.130Z,299.72
2019-03-06T04:38:38.116Z,315.00
2019-03-06T04:39:38.145Z,277.24
2019-03-06T04:40:38.128Z,270.00
2019-03-06T04:41:38.322Z,270.00
2019-03-06T04:42:38.378Z,263.91
2019-03-06T04:43:38.371Z,184.52
2019-03-06T04:44:38.377Z,180.00
2019-03-06T04:45:38.375Z,180.00
2019-03-06T04:46:38.389Z,180.00
2019-03-06T04:47:38.387Z,180.00
2019-03-06T04:48:38.392Z,180.00
2019-03-06T04:49:38.434Z,171.60
2019-03-06T04:50:38.410Z,45.00
2019-03-06T04:51:38.414Z,46.26
2019-03-06T04:52:38.433Z,90.00
2019-03-06T04:53:38.427Z,90.00
2019-03-06T04:54:38.440Z,88.44
2019-03-06T04:55:38.444Z,297.28
2019-03-06T04:56:38.455Z,270.00
2019-03-06T04:57:38.447Z,313.11
2019-03-06T04:58:38.426Z,315.00
2019-03-06T04:59:38.475Z,315.00
2019-03-06T05:00:38.459Z,315.00
2019-03-06T05:01:38.514Z,315.00
2019-03-06T05:02:38.486Z,315.00
2019-03-06T05:03:38.477Z,315.00
2019-03-06T05:04:38.509Z,315.00
2019-03-06T05:05:38.489Z,315.00
2019-03-06T05:06:38.541Z,315.00
2019-03-06T05:07:38.587Z,315.00
2019-03-06T05:08:38.559Z,315.00
2019-03-06T05:09:38.773Z,133.48
2019-03-06T05:10:38.540Z,126.94
2019-03-06T05:11:38.549Z,135.00
2019-03-06T05:12:38.571Z,135.00
2019-03-06T05:13:38.595Z,133.57
2019-03-06T05:14:38.597Z,90.00
2019-03-06T05:15:38.588Z,90.00
2019-03-06T05:16:38.579Z,90.00
2019-03-06T05:17:38.604Z,90.00
2019-03-06T05:18:40.368Z,90.00
2019-03-06T05:19:38.647Z,90.00
2019-03-06T05:20:38.635Z,90.00
2019-03-06T05:21:38.624Z,90.00
2019-03-06T05:22:38.633Z,16.48
2019-03-06T05:23:38.658Z,226.03
2019-03-06T05:24:38.667Z,225.00
2019-03-06T05:25:38.664Z,225.00
2019-03-06T05:26:38.673Z,225.00
2019-03-06T05:27:38.665Z,225.00
2019-03-06T05:28:38.675Z,225.00
2019-03-06T05:29:38.672Z,225.00
2019-03-06T05:30:38.702Z,225.00
2019-03-06T05:31:38.722Z,225.00
2019-03-06T05:32:38.715Z,225.00
2019-03-06T05:33:38.705Z,225.00
2019-03-06T05:34:38.732Z,225.00
2019-03-06T05:35:38.719Z,224.25
2019-03-06T05:36:38.771Z,90.00
2019-03-06T05:37:38.763Z,90.00
2019-03-06T05:38:38.746Z,92.49
2019-03-06T05:39:38.769Z,135.00
2019-03-06T05:40:38.776Z,135.00
2019-03-06T05:41:38.772Z,135.00
2019-03-06T05:42:38.583Z,135.00
2019-03-06T05:43:38.614Z,135.00
2019-03-06T05:44:38.600Z,135.00
2019-03-06T05:45:38.587Z,135.00
2019-03-06T05:46:38.615Z,135.00
2019-03-06T05:47:38.649Z,135.00
2019-03-06T05:48:38.608Z,135.00
2019-03-06T05:49:38.636Z,135.00
2019-03-06T05:50:38.641Z,135.00
2019-03-06T05:51:38.650Z,135.00
2019-03-06T05:52:38.657Z,135.00
2019-03-06T05:53:38.645Z,131.68
2019-03-06T05:54:38.676Z,90.00
2019-03-06T05:55:38.719Z,90.00
2019-03-06T05:56:38.727Z,90.00
2019-03-06T05:57:38.694Z,90.00
2019-03-06T05:58:38.724Z,90.00
2019-03-06T05:59:38.700Z,90.00
2019-03-06T06:00:38.712Z,132.97
2019-03-06T06:01:38.733Z,135.00
2019-03-06T06:02:38.723Z,135.00
2019-03-06T06:03:38.729Z,135.00
2019-03-06T06:04:38.742Z,135.00
2019-03-06T06:05:38.750Z,135.00
2019-03-06T06:06:38.792Z,135.00
2019-03-06T06:07:38.780Z,135.00
2019-03-06T06:08:38.770Z,135.00
2019-03-06T06:09:38.785Z,135.00
2019-03-06T06:10:38.804Z,135.00
2019-03-06T06:11:38.787Z,135.00
2019-03-06T06:12:38.610Z,135.00
2019-03-06T06:13:38.645Z,135.00
2019-03-06T06:14:39.226Z,126.84
2019-03-06T06:15:38.620Z,90.00
2019-03-06T06:16:38.659Z,90.00
2019-03-06T06:17:38.625Z,90.00
2019-03-06T06:18:38.645Z,8.24
2019-03-06T06:19:38.662Z,315.00
2019-03-06T06:20:38.665Z,301.54
2019-03-06T06:21:38.646Z,315.00
2019-03-06T06:22:38.655Z,315.00
2019-03-06T06:23:38.678Z,315.00
2019-03-06T06:24:38.715Z,279.07
2019-03-06T06:25:38.706Z,315.00
2019-03-06T06:26:38.683Z,315.00
2019-03-06T06:27:38.718Z,315.00
2019-03-06T06:28:38.766Z,1.05
2019-03-06T06:29:38.711Z,90.00
2019-03-06T06:30:38.733Z,90.00
2019-03-06T06:31:38.737Z,90.00
2019-03-06T06:32:38.744Z,98.27
2019-03-06T06:33:38.743Z,135.00
2019-03-06T06:34:38.787Z,135.00
2019-03-06T06:35:38.779Z,135.00
2019-03-06T06:36:38.792Z,135.00
2019-03-06T06:37:38.777Z,135.00
2019-03-06T06:38:38.784Z,135.00
2019-03-06T06:39:38.793Z,135.00
2019-03-06T06:40:38.812Z,135.00
2019-03-06T06:41:39.040Z,135.00
2019-03-06T06:42:38.624Z,135.00
2019-03-06T06:43:38.600Z,135.00
2019-03-06T06:44:38.643Z,135.00
2019-03-06T06:45:38.639Z,135.00
2019-03-06T06:46:38.651Z,135.00
2019-03-06T06:47:38.660Z,210.01
2019-03-06T06:48:38.701Z,270.00
2019-03-06T06:49:38.672Z,270.00
2019-03-06T06:50:38.695Z,280.09
2019-03-06T06:51:38.686Z,290.62
2019-03-06T06:52:38.687Z,289.07
2019-03-06T06:53:38.701Z,325.91
2019-03-06T06:54:38.703Z,90.00
2019-03-06T06:55:38.717Z,90.00
2019-03-06T06:56:38.701Z,90.00
2019-03-06T06:57:38.706Z,90.00
2019-03-06T06:58:38.710Z,90.00
2019-03-06T06:59:38.748Z,90.00
2019-03-06T07:00:38.758Z,90.00
2019-03-06T07:01:38.744Z,90.00
2019-03-06T07:02:39.575Z,117.96
2019-03-06T07:03:38.790Z,154.12
2019-03-06T07:04:38.814Z,270.00
2019-03-06T07:05:38.817Z,270.00
2019-03-06T07:06:38.780Z,270.00
2019-03-06T07:07:38.793Z,271.39
2019-03-06T07:08:38.790Z,270.00
2019-03-06T07:09:38.801Z,286.88
2019-03-06T07:10:38.840Z,293.64
2019-03-06T07:11:39.057Z,315.00
2019-03-06T07:12:38.804Z,305.15
2019-03-06T07:13:38.660Z,270.00
2019-03-06T07:14:38.646Z,270.00
2019-03-06T07:15:38.662Z,270.00
2019-03-06T07:16:38.673Z,270.85
2019-03-06T07:17:38.681Z,270.00
2019-03-06T07:18:38.679Z,314.32
2019-03-06T07:19:38.717Z,305.07
2019-03-06T07:20:38.883Z,275.89
2019-03-06T07:21:38.892Z,271.00
2019-03-06T07:22:38.932Z,310.14
2019-03-06T07:23:38.915Z,290.02
2019-03-06T07:24:38.901Z,288.04
2019-03-06T07:25:38.945Z,278.24
2019-03-06T07:26:38.928Z,270.00
2019-03-06T07:27:38.953Z,247.69
2019-03-06T07:28:38.952Z,133.57
2019-03-06T07:29:38.945Z,234.26
2019-03-06T07:30:38.964Z,270.08
2019-03-06T07:31:38.993Z,282.65
2019-03-06T07:32:38.974Z,270.00
2019-03-06T07:33:38.991Z,295.38
2019-03-06T07:34:39.008Z,289.92
2019-03-06T07:35:38.989Z,267.99
2019-03-06T07:36:39.001Z,270.00
2019-03-06T07:37:39.014Z,270.00
2019-03-06T07:38:39.021Z,271.54
2019-03-06T07:39:39.052Z,270.00
2019-03-06T07:40:39.060Z,270.00
2019-03-06T07:41:39.033Z,270.00
2019-03-06T07:42:39.040Z,270.00
2019-03-06T07:43:39.075Z,248.66
2019-03-06T07:44:39.089Z,267.41
2019-03-06T07:45:39.074Z,270.00
2019-03-06T07:46:39.105Z,270.00
2019-03-06T07:47:39.083Z,270.93
2019-03-06T07:48:39.112Z,32.68
2019-03-06T07:49:44.967Z,45.00
2019-03-06T07:50:39.100Z,45.13
2019-03-06T07:51:39.130Z,108.95
2019-03-06T07:52:39.139Z,121.67
2019-03-06T07:53:39.128Z,90.00
2019-03-06T07:54:39.134Z,90.00
2019-03-06T07:55:39.148Z,90.00
2019-03-06T07:56:39.151Z,90.00
2019-03-06T07:57:39.190Z,90.00
2019-03-06T07:58:39.197Z,90.00
2019-03-06T07:59:39.187Z,90.00
2019-03-06T08:00:39.183Z,98.67
2019-03-06T08:01:39.202Z,90.00
2019-03-06T08:02:39.205Z,90.00
2019-03-06T08:03:39.227Z,90.00
2019-03-06T08:04:39.240Z,90.00
2019-03-06T08:05:39.223Z,90.00
2019-03-06T08:06:39.228Z,97.48
2019-03-06T08:07:39.265Z,92.62
2019-03-06T08:08:39.224Z,90.00
2019-03-06T08:09:39.056Z,99.56
2019-03-06T08:10:39.069Z,90.00
2019-03-06T08:11:39.070Z,90.00
2019-03-06T08:12:39.064Z,172.01
2019-03-06T08:13:39.060Z,180.00
2019-03-06T08:14:39.073Z,126.87
2019-03-06T08:15:39.116Z,260.80
2019-03-06T08:16:39.136Z,88.49
2019-03-06T08:17:39.118Z,90.00
2019-03-06T08:18:39.134Z,89.73
2019-03-06T08:19:39.114Z,67.82
2019-03-06T08:20:39.119Z,90.00
2019-03-06T08:21:39.144Z,90.04
2019-03-06T08:22:39.147Z,92.58
2019-03-06T08:23:39.147Z,90.00
2019-03-06T08:24:39.166Z,91.53
2019-03-06T08:25:39.166Z,90.95
2019-03-06T08:26:39.164Z,91.33
2019-03-06T08:27:39.196Z,91.19
2019-03-06T08:28:39.188Z,97.37
2019-03-06T08:29:39.180Z,90.81
2019-03-06T08:30:39.181Z,90.00
2019-03-06T08:31:39.225Z,100.49
2019-03-06T08:32:39.214Z,95.47
2019-03-06T08:33:39.249Z,91.20
2019-03-06T08:34:39.242Z,96.94
2019-03-06T08:35:39.252Z,98.63
2019-03-06T08:36:39.228Z,95.30
2019-03-06T08:37:39.224Z,88.69
2019-03-06T08:38:39.242Z,61.13
2019-03-06T08:39:39.090Z,93.18
2019-03-06T08:40:39.090Z,96.85
2019-03-06T08:41:39.061Z,85.60
2019-03-06T08:42:39.094Z,111.04
2019-03-06T08:43:39.100Z,45.67
2019-03-06T08:44:39.080Z,253.94
2019-03-06T08:45:39.115Z,291.06
2019-03-06T08:46:39.113Z,274.42
2019-03-06T08:47:39.098Z,297.04
2019-03-06T08:48:39.113Z,281.31
2019-03-06T08:49:39.153Z,272.02
2019-03-06T08:50:39.125Z,306.38
2019-03-06T08:51:39.160Z,282.62
2019-03-06T08:52:39.167Z,283.26
2019-03-06T08:53:39.148Z,267.50
2019-03-06T08:54:39.148Z,248.36
2019-03-06T08:55:39.186Z,91.28
2019-03-06T08:56:39.173Z,93.19
2019-03-06T08:57:39.198Z,99.67
2019-03-06T08:58:39.194Z,88.49
2019-03-06T08:59:39.208Z,99.46
2019-03-06T09:00:39.235Z,166.11
2019-03-06T09:01:39.223Z,110.59
2019-03-06T09:02:39.210Z,90.93
2019-03-06T09:03:39.248Z,109.52
2019-03-06T09:04:39.278Z,92.67
2019-03-06T09:05:39.248Z,85.64
2019-03-06T09:06:39.248Z,95.82
2019-03-06T09:07:39.285Z,115.62
2019-03-06T09:08:39.258Z,162.64
2019-03-06T09:09:39.309Z,142.81
2019-03-06T09:10:39.088Z,268.87
2019-03-06T09:11:39.588Z,90.00
2019-03-06T09:12:39.076Z,98.75
2019-03-06T09:13:39.118Z,90.00
2019-03-06T09:14:39.093Z,26.01
2019-03-06T09:15:39.145Z,142.65
2019-03-06T09:16:39.187Z,104.92
2019-03-06T09:17:39.104Z,118.04
2019-03-06T09:18:39.130Z,277.30
2019-03-06T09:19:39.151Z,35.71
2019-03-06T09:20:41.029Z,85.79
2019-03-06T09:21:39.182Z,91.27
2019-03-06T09:22:39.204Z,105.53
2019-03-06T09:23:39.163Z,100.71
2019-03-06T09:24:39.163Z,90.78
2019-03-06T09:25:39.199Z,97.54
2019-03-06T09:26:39.181Z,236.99
2019-03-06T09:27:39.242Z,99.87
2019-03-06T09:28:39.228Z,81.65
2019-03-06T09:29:39.218Z,98.87
2019-03-06T09:30:39.279Z,92.22
2019-03-06T09:31:39.299Z,90.38
2019-03-06T09:32:39.289Z,94.74
2019-03-06T09:33:39.285Z,108.42
2019-03-06T09:34:39.318Z,90.21
2019-03-06T09:35:39.282Z,90.19
2019-03-06T09:36:39.299Z,116.63
2019-03-06T09:37:39.283Z,94.21
2019-03-06T09:38:39.294Z,92.91
2019-03-06T09:39:39.305Z,94.03
2019-03-06T09:40:39.318Z,241.27
2019-03-06T09:41:39.303Z,127.63
2019-03-06T09:42:39.127Z,100.30
2019-03-06T09:43:39.119Z,91.88
2019-03-06T09:44:39.117Z,112.19
2019-03-06T09:45:39.170Z,350.22
2019-03-06T09:46:39.158Z,96.50
2019-03-06T09:47:39.136Z,90.79
2019-03-06T09:48:39.161Z,110.24
2019-03-06T09:49:39.166Z,64.99
2019-03-06T09:50:39.159Z,262.08
2019-03-06T09:51:39.198Z,87.86
2019-03-06T09:52:39.216Z,334.77
2019-03-06T09:53:39.176Z,278.64
2019-03-06T09:54:39.197Z,240.83
2019-03-06T09:55:39.220Z,338.48
2019-03-06T09:56:39.206Z,12.84
2019-03-06T09:57:39.243Z,212.99
2019-03-06T09:58:39.251Z,92.30
2019-03-06T09:59:39.241Z,97.11
2019-03-06T10:00:39.212Z,93.22
2019-03-06T10:01:39.235Z,102.64
2019-03-06T10:02:39.248Z,180.83
2019-03-06T10:03:39.299Z,258.65
2019-03-06T10:04:39.301Z,90.84
2019-03-06T10:05:39.282Z,103.37
2019-03-06T10:06:39.301Z,222.74
2019-03-06T10:07:39.285Z,235.28
2019-03-06T10:08:39.307Z,97.36
2019-03-06T10:09:39.290Z,105.63
2019-03-06T10:10:45.982Z,115.06
2019-03-06T10:11:39.334Z,16.65
2019-03-06T10:12:47.202Z,273.09
2019-03-06T10:13:42.102Z,239.85
2019-03-06T10:14:39.159Z,211.88
2019-03-06T10:15:39.154Z,102.26
2019-03-06T10:16:39.167Z,90.00
2019-03-06T10:17:39.168Z,109.41
2019-03-06T10:18:39.167Z,336.31
2019-03-06T10:19:39.188Z,96.31
2019-03-06T10:20:39.181Z,157.04
2019-03-06T10:21:39.179Z,91.27
2019-03-06T10:22:39.226Z,92.53
2019-03-06T10:23:39.196Z,319.22
2019-03-06T10:24:39.226Z,266.17
2019-03-06T10:25:39.227Z,260.90
2019-03-06T10:26:39.230Z,91.66
2019-03-06T10:27:39.265Z,108.38
2019-03-06T10:28:39.265Z,93.78
2019-03-06T10:29:39.262Z,115.43
2019-03-06T10:30:39.225Z,30.52
2019-03-06T10:31:39.259Z,150.36
2019-03-06T10:32:39.262Z,170.52
2019-03-06T10:33:39.311Z,246.74
2019-03-06T10:34:39.292Z,97.89
2019-03-06T10:35:39.283Z,105.10
2019-03-06T10:36:39.293Z,107.51
2019-03-06T10:37:39.318Z,90.00
2019-03-06T10:38:39.318Z,93.18
2019-03-06T10:39:39.349Z,83.23
2019-03-06T10:40:39.374Z,265.17
2019-03-06T10:41:39.330Z,95.53
2019-03-06T10:42:39.349Z,83.72
2019-03-06T10:43:39.348Z,103.74
2019-03-06T10:44:39.347Z,141.58
2019-03-06T10:45:42.019Z,74.31
2019-03-06T10:46:39.215Z,101.31
2019-03-06T10:47:39.164Z,207.48
2019-03-06T10:48:39.197Z,320.00
2019-03-06T10:49:39.212Z,273.87
2019-03-06T10:50:39.201Z,161.47
2019-03-06T10:51:39.204Z,102.22
2019-03-06T10:52:39.227Z,92.24
2019-03-06T10:53:41.544Z,77.02
2019-03-06T10:54:44.611Z,94.65
2019-03-06T10:55:39.250Z,96.70
2019-03-06T10:56:39.247Z,105.19
2019-03-06T10:57:39.271Z,97.54
2019-03-06T10:58:39.238Z,98.04
2019-03-06T10:59:39.239Z,22.07
2019-03-06T11:00:39.286Z,90.00
2019-03-06T11:01:39.283Z,113.75
2019-03-06T11:02:39.290Z,118.54
2019-03-06T11:03:39.343Z,8.95
2019-03-06T11:04:39.325Z,307.56
2019-03-06T11:05:39.401Z,50.83
2019-03-06T11:06:39.318Z,235.71
2019-03-06T11:07:39.322Z,105.02
2019-03-06T11:08:39.380Z,239.92
2019-03-06T11:09:39.430Z,92.53
2019-03-06T11:10:39.368Z,93.96
2019-03-06T11:11:39.346Z,108.94
2019-03-06T11:12:39.381Z,96.15
2019-03-06T11:13:39.370Z,102.75
2019-03-06T11:14:39.373Z,96.27
2019-03-06T11:15:39.394Z,115.96
2019-03-06T11:16:39.198Z,205.50
2019-03-06T11:17:39.190Z,91.97
2019-03-06T11:18:39.176Z,92.57
2019-03-06T11:19:39.390Z,91.97
2019-03-06T11:20:40.670Z,293.76
2019-03-06T11:21:39.225Z,217.87
2019-03-06T11:22:39.230Z,202.20
2019-03-06T11:23:39.216Z,108.03
2019-03-06T11:24:39.248Z,118.25
2019-03-06T11:25:39.243Z,110.27
2019-03-06T11:26:39.242Z,124.24
2019-03-06T11:27:39.283Z,97.06
2019-03-06T11:28:39.278Z,34.25
2019-03-06T11:29:39.259Z,96.80
2019-03-06T11:30:39.270Z,161.97
2019-03-06T11:31:39.317Z,95.95
2019-03-06T11:32:39.314Z,95.89
2019-03-06T11:33:39.319Z,93.21
2019-03-06T11:34:39.346Z,101.59
2019-03-06T11:35:39.355Z,107.57
2019-03-06T11:36:39.328Z,96.05
2019-03-06T11:37:39.345Z,92.02
2019-03-06T11:38:39.343Z,64.18
2019-03-06T11:39:39.381Z,59.04
2019-03-06T11:40:39.353Z,132.33
2019-03-06T11:41:39.349Z,276.32
2019-03-06T11:42:39.387Z,112.90
2019-03-06T11:43:39.354Z,95.78
2019-03-06T11:44:39.371Z,63.16
2019-03-06T11:45:39.400Z,101.18
2019-03-06T11:46:39.414Z,81.98
2019-03-06T11:47:39.418Z,37.73
2019-03-06T11:48:39.203Z,75.76
2019-03-06T11:49:39.206Z,198.26
2019-03-06T11:50:41.163Z,237.62
2019-03-06T11:51:39.258Z,69.24
2019-03-06T11:52:39.246Z,123.43
2019-03-06T11:53:39.251Z,63.06
2019-03-06T11:54:39.244Z,300.92
2019-03-06T11:55:39.259Z,144.87
2019-03-06T11:56:39.256Z,242.73
2019-03-06T11:57:39.279Z,321.92
2019-03-06T11:58:39.280Z,108.92
2019-03-06T11:59:39.304Z,113.12
2019-03-06T12:00:39.318Z,124.73
2019-03-06T12:01:47.607Z,77.96
2019-03-06T12:02:39.332Z,165.38
2019-03-06T12:03:39.319Z,90.00
2019-03-06T12:04:39.324Z,90.54
2019-03-06T12:05:39.323Z,100.30
2019-03-06T12:06:39.333Z,261.16
2019-03-06T12:07:39.356Z,182.60
2019-03-06T12:08:45.654Z,84.98
2019-03-06T12:09:39.382Z,114.20
2019-03-06T12:10:39.405Z,302.15
2019-03-06T12:11:39.384Z,80.68
2019-03-06T12:12:39.389Z,98.52
2019-03-06T12:13:39.396Z,314.31
2019-03-06T12:14:39.382Z,238.47
2019-03-06T12:15:39.404Z,91.35
2019-03-06T12:16:42.054Z,112.50
2019-03-06T12:17:39.425Z,102.20
2019-03-06T12:18:39.450Z,182.52
2019-03-06T12:19:39.452Z,143.59
2019-03-06T12:20:39.433Z,129.72
2019-03-06T12:21:39.251Z,167.12
2019-03-06T12:22:39.291Z,90.17
2019-03-06T12:23:39.355Z,113.85
2019-03-06T12:24:39.258Z,297.78
2019-03-06T12:25:39.273Z,292.79
2019-03-06T12:26:39.267Z,259.24
2019-03-06T12:27:39.352Z,24.47
2019-03-06T12:28:39.318Z,122.83
2019-03-06T12:29:39.285Z,110.66
2019-03-06T12:30:39.326Z,158.34
2019-03-06T12:31:39.307Z,308.56
2019-03-06T12:32:39.312Z,319.31
2019-03-06T12:33:39.350Z,38.29
2019-03-06T12:34:39.349Z,74.43
2019-03-06T12:35:39.345Z,96.97
2019-03-06T12:36:39.338Z,95.09
2019-03-06T12:37:46.681Z,128.23